地図

経路データ

SID SEASON NUMBER BASIN SUBBASIN NAME ISO_TIME NATURE LAT LON WMO_WIND WMO_PRES WMO_AGENCY TRACK_TYPE DIST2LAND LANDFALL IFLAG USA_AGENCY USA_ATCF_ID USA_LAT USA_LON USA_RECORD USA_STATUS USA_WIND USA_PRES USA_SSHS USA_R34_NE USA_R34_SE USA_R34_SW USA_R34_NW USA_R50_NE USA_R50_SE USA_R50_SW USA_R50_NW USA_R64_NE USA_R64_SE USA_R64_SW USA_R64_NW USA_POCI USA_ROCI USA_RMW USA_EYE TOKYO_LAT TOKYO_LON TOKYO_GRADE TOKYO_WIND TOKYO_PRES TOKYO_R50_DIR TOKYO_R50_LONG TOKYO_R50_SHORT TOKYO_R30_DIR TOKYO_R30_LONG TOKYO_R30_SHORT TOKYO_LAND CMA_LAT CMA_LON CMA_CAT CMA_WIND CMA_PRES HKO_LAT HKO_LON HKO_CAT HKO_WIND HKO_PRES NEWDELHI_LAT NEWDELHI_LON NEWDELHI_GRADE NEWDELHI_WIND NEWDELHI_PRES NEWDELHI_CI NEWDELHI_DP NEWDELHI_POCI REUNION_LAT REUNION_LON REUNION_TYPE REUNION_WIND REUNION_PRES REUNION_TNUM REUNION_CI REUNION_RMW REUNION_R34_NE REUNION_R34_SE REUNION_R34_SW REUNION_R34_NW REUNION_R50_NE REUNION_R50_SE REUNION_R50_SW REUNION_R50_NW REUNION_R64_NE REUNION_R64_SE REUNION_R64_SW REUNION_R64_NW BOM_LAT BOM_LON BOM_TYPE BOM_WIND BOM_PRES BOM_TNUM BOM_CI BOM_RMW BOM_R34_NE BOM_R34_SE BOM_R34_SW BOM_R34_NW BOM_R50_NE BOM_R50_SE BOM_R50_SW BOM_R50_NW BOM_R64_NE BOM_R64_SE BOM_R64_SW BOM_R64_NW BOM_ROCI BOM_POCI BOM_EYE BOM_POS_METHOD BOM_PRES_METHOD NADI_LAT NADI_LON NADI_CAT NADI_WIND NADI_PRES WELLINGTON_LAT WELLINGTON_LON WELLINGTON_WIND WELLINGTON_PRES DS824_LAT DS824_LON DS824_STAGE DS824_WIND DS824_PRES TD9636_LAT TD9636_LON TD9636_STAGE TD9636_WIND TD9636_PRES TD9635_LAT TD9635_LON TD9635_WIND TD9635_PRES TD9635_ROCI NEUMANN_LAT NEUMANN_LON NEUMANN_CLASS NEUMANN_WIND NEUMANN_PRES MLC_LAT MLC_LON MLC_CLASS MLC_WIND MLC_PRES USA_GUST BOM_GUST BOM_GUST_PER REUNION_GUST REUNION_GUST_PER USA_SEAHGT USA_SEARAD_NE USA_SEARAD_SE USA_SEARAD_SW USA_SEARAD_NW STORM_SPEED STORM_DIR
1951080N23195 1951 20 EP CP NOT_NAMED 1951-03-21 00:00:00 NR 23.4000 -165.000 main 555 506 O_________O___ jtwc_cp CP011951 23.4000 -165.000 26 -1 23.4000 -165.000 2 10 89
1951080N23195 1951 20 EP CP NOT_NAMED 1951-03-21 03:00:00 NR 23.4099 -164.442 main 496 448 P_________P___ CP011951 23.3880 -164.440 26 -1 23.4319 -164.444 2 10 88
1951080N23195 1951 20 EP CP NOT_NAMED 1951-03-21 06:00:00 NR 23.4301 -163.900 main 448 405 O_________P___ jtwc_cp CP011951 23.4000 -163.900 26 -1 23.4602 -163.901 2 10 87
1951080N23195 1951 20 EP CP NOT_NAMED 1951-03-21 09:00:00 NR 23.4666 -163.387 main 405 359 P_________P___ CP011951 23.4498 -163.393 26 -1 23.4833 -163.382 2 9 86
1951080N23195 1951 20 EP CP NOT_NAMED 1951-03-21 12:00:00 NR 23.5000 -162.900 main 359 323 O_________O___ jtwc_cp CP011951 23.5000 -162.900 26 -1 23.5000 -162.900 2 9 87
1951080N23195 1951 20 EP CP NOT_NAMED 1951-03-21 15:00:00 NR 23.5054 -162.426 main 314 281 P_________P___ CP011951 23.4999 -162.392 26 -1 23.5109 -162.459 2 9 89
1951080N23195 1951 20 EP CP NOT_NAMED 1951-03-21 18:00:00 NR 23.5123 -161.962 main 281 241 O_________P___ jtwc_cp CP011951 23.5000 -161.900 26 -1 23.5247 -162.024 2 8 87
1951080N23195 1951 20 EP CP NOT_NAMED 1951-03-21 21:00:00 NR 23.5502 -161.524 main 249 214 P_________P___ CP011951 23.5492 -161.495 26 -1 23.5512 -161.552 2 9 84
1951080N23195 1951 20 EP CP NOT_NAMED 1951-03-22 00:00:00 NR 23.6000 -161.000 main 214 178 O_________O___ jtwc_cp CP011951 23.6000 -161.000 26 -1 23.6000 -161.000 2 12 89
1951080N23195 1951 20 EP CP NOT_NAMED 1951-03-22 03:00:00 NR 23.5727 -160.242 main 175 167 P_________P___ CP011951 23.5779 -160.244 26 -1 23.5675 -160.240 2 15 91
1951080N23195 1951 20 EP CP NOT_NAMED 1951-03-22 06:00:00 NR 23.5858 -159.404 main 167 167 O_________P___ jtwc_cp CP011951 23.6000 -159.400 26 -1 23.5716 -159.409 2 15 85
1951080N23195 1951 20 EP CP NOT_NAMED 1951-03-22 09:00:00 NR 23.6923 -158.591 main 192 192 P_________P___ CP011951 23.6952 -158.582 26 -1 23.6894 -158.599 2 14 73
1951080N23195 1951 20 EP CP NOT_NAMED 1951-03-22 12:00:00 NR 24.0000 -157.900 main 256 256 O_________O___ jtwc_cp CP011951 24.0000 -157.900 26 -1 24.0000 -157.900 2 14 49
1951080N23195 1951 20 EP CP NOT_NAMED 1951-03-22 15:00:00 NR 24.6035 -157.463 main 334 334 P_________P___ CP011951 24.5944 -157.489 26 -1 24.6126 -157.436 2 16 26
1951080N23195 1951 20 EP CP NOT_NAMED 1951-03-22 18:00:00 NR 25.4086 -157.144 main 431 431 O_________P___ jtwc_cp CP011951 25.4000 -157.200 26 -1 25.4172 -157.087 2 18 19
1951080N23195 1951 20 EP CP NOT_NAMED 1951-03-22 21:00:00 NR 26.2990 -156.829 main 533 533 P_________P___ CP011951 26.2848 -156.865 26 -1 26.3133 -156.794 2 19 18
1951080N23195 1951 20 EP CP NOT_NAMED 1951-03-23 00:00:00 NR 27.2000 -156.500 main 636 636 O_________O___ jtwc_cp CP011951 27.2000 -156.500 26 -1 27.2000 -156.500 2 19 21
1951080N23195 1951 20 EP CP NOT_NAMED 1951-03-23 03:00:00 NR 28.0826 -156.058 main 743 743 P_________P___ CP011951 28.0451 -156.050 26 -1 28.1200 -156.065 2 19 25
1951080N23195 1951 20 EP CP NOT_NAMED 1951-03-23 06:00:00 NR 28.8916 -155.612 main 845 845 O_________P___ jtwc_cp CP011951 28.8000 -155.600 26 -1 28.9832 -155.623 2 17 26
1951080N23195 1951 20 EP CP NOT_NAMED 1951-03-23 09:00:00 NR 29.6098 -155.208 main 932 932 P_________P___ CP011951 29.5649 -155.198 26 -1 29.6546 -155.219 2 13 29
1951080N23195 1951 20 EP CP NOT_NAMED 1951-03-23 12:00:00 NR 30.0000 -154.900 main 985 977 O_________O___ jtwc_cp CP011951 30.0000 -154.900 26 -1 30.0000 -154.900 2 5 56
1951080N23195 1951 20 EP CP NOT_NAMED 1951-03-23 15:00:00 NR 29.8806 -154.752 main 977 928 P_________P___ CP011951 29.8873 -154.754 26 -1 29.8740 -154.749 2 6 163
1951080N23195 1951 20 EP CP NOT_NAMED 1951-03-23 18:00:00 NR 29.4119 -154.694 main 928 866 O_________P___ jtwc_cp CP011951 29.4000 -154.700 26 -1 29.4238 -154.688 2 11 176
1951080N23195 1951 20 EP CP NOT_NAMED 1951-03-23 21:00:00 NR 28.7646 -154.658 main 866 798 P_________P___ CP011951 28.7425 -154.658 26 -1 28.7868 -154.658 2 13 177
1951080N23195 1951 20 EP CP NOT_NAMED 1951-03-24 00:00:00 NR 28.1000 -154.600 main 798 763 O_________O___ jtwc_cp CP011951 28.1000 -154.600 26 -1 28.1000 -154.600 2 11 170
1951080N23195 1951 20 EP CP NOT_NAMED 1951-03-24 03:00:00 NR 27.6708 -154.440 main 767 733 P_________P___ CP011951 27.7900 -154.465 26 -1 27.5516 -154.414 2 9 159
1951080N23195 1951 20 EP CP NOT_NAMED 1951-03-24 06:00:00 NR 27.2927 -154.249 main 738 706 O_________P___ jtwc_cp CP011951 27.6000 -154.300 26 -1 26.9854 -154.198 2 8 156
1951080N23195 1951 20 EP CP NOT_NAMED 1951-03-24 09:00:00 NR 26.9257 -154.067 main 706 671 P_________P___ CP011951 27.4250 -154.150 26 -1 26.4265 -153.983 2 9 159
1951080N23195 1951 20 EP CP NOT_NAMED 1951-03-24 12:00:00 NR 26.5000 -153.900 main 671 622 O_________O___ jtwc_cp CP011951 27.1000 -154.000 26 -1 25.9000 -153.800 2 11 164
1951080N23195 1951 20 EP CP NOT_NAMED 1951-03-24 15:00:00 NR 25.9181 -153.745 main 616 559 P_________P___ CP011951 26.4175 -153.842 26 -1 25.4186 -153.649 2 12 168
1951080N23195 1951 20 EP CP NOT_NAMED 1951-03-24 18:00:00 NR 25.2874 -153.619 main 559 505 O_________P___ jtwc_cp CP011951 25.6000 -153.700 26 -1 24.9748 -153.538 2 12 171
1951080N23195 1951 20 EP CP NOT_NAMED 1951-03-24 21:00:00 NR 24.7043 -153.526 main 505 458 P_________P___ CP011951 24.8400 -153.570 26 -1 24.5686 -153.483 2 11 175
1951080N23195 1951 20 EP CP NOT_NAMED 1951-03-25 00:00:00 NR 24.2000 -153.500 main 458 422 O_________O___ jtwc_cp CP011951 24.2000 -153.500 26 -1 24.2000 -153.500 2 9 0
1951080N23195 1951 20 EP CP NOT_NAMED 1951-03-25 03:00:00 NR 23.8089 -153.529 main 422 390 P_________P___ CP011951 23.7824 -153.490 26 -1 23.8353 -153.567 2 7 192
1951080N23195 1951 20 EP CP NOT_NAMED 1951-03-25 06:00:00 NR 23.5048 -153.654 main 383 344 O_________P___ jtwc_cp CP011951 23.5000 -153.600 26 -1 23.5095 -153.708 2 7 209
1951080N23195 1951 20 EP CP NOT_NAMED 1951-03-25 09:00:00 NR 23.2207 -153.888 main 344 308 P_________P___ CP011951 23.2125 -153.855 26 -1 23.2289 -153.920 2 7 225
1951080N23195 1951 20 EP CP NOT_NAMED 1951-03-25 12:00:00 NR 23.0000 -154.200 main 308 281 O_________O___ jtwc_cp CP011951 23.0000 -154.200 26 -1 23.0000 -154.200 2 7 238
1951080N23195 1951 20 EP CP NOT_NAMED 1951-03-25 15:00:00 NR 22.8629 -154.521 main 281 250 P_________P___ CP011951 22.8849 -154.527 26 -1 22.8408 -154.514 2 7 250
1951080N23195 1951 20 EP CP NOT_NAMED 1951-03-25 18:00:00 NR 22.7636 -154.897 main 250 224 O_________P___ jtwc_cp CP011951 22.8000 -154.900 26 -1 22.7273 -154.894 2 8 254
1951080N23195 1951 20 EP CP NOT_NAMED 1951-03-25 21:00:00 NR 22.6449 -155.323 main 213 191 P_________P___ CP011951 22.6649 -155.320 26 -1 22.6250 -155.327 2 9 252
1951080N23195 1951 20 EP CP NOT_NAMED 1951-03-26 00:00:00 NR 22.5000 -155.800 main 191 157 O_________O___ jtwc_cp CP011951 22.5000 -155.800 26 -1 22.5000 -155.800 2 10 250
1951080N23195 1951 20 EP CP NOT_NAMED 1951-03-26 03:00:00 NR 22.3079 -156.349 main 157 113 P_________P___ CP011951 22.3150 -156.342 26 -1 22.3009 -156.355 2 11 248
1951080N23195 1951 20 EP CP NOT_NAMED 1951-03-26 06:00:00 NR 22.0871 -156.917 main 113 60 O_________P___ jtwc_cp CP011951 22.1000 -156.900 26 -1 22.0742 -156.934 2 11 246
1951080N23195 1951 20 EP CP NOT_NAMED 1951-03-26 09:00:00 NR 21.8464 -157.462 main 45 0 P_________P___ CP011951 21.8576 -157.453 26 -1 21.8352 -157.471 2 10 242
1951080N23195 1951 20 EP CP NOT_NAMED 1951-03-26 12:00:00 NR 21.6000 -157.900 main 0 0 O_________O___ jtwc_cp CP011951 21.6000 -157.900 26 -1 21.6000 -157.900 2 8 232
1951080N23195 1951 20 EP CP NOT_NAMED 1951-03-26 15:00:00 NR 21.3430 -158.159 main 10 10 P_________P___ CP011951 21.3348 -158.167 26 -1 21.3512 -158.151 2 6 217
1951080N23195 1951 20 EP CP NOT_NAMED 1951-03-26 18:00:00 NR 21.1082 -158.296 main 30 30 O_________P___ jtwc_cp CP011951 21.1000 -158.300 26 -1 21.1164 -158.292 2 5 204
1951080N23195 1951 20 EP CP NOT_NAMED 1951-03-26 21:00:00 NR 20.9180 -158.367 main 54 54 P_________P___ CP011951 20.9125 -158.372 26 -1 20.9235 -158.361 2 3 198
1951080N23195 1951 20 EP CP NOT_NAMED 1951-03-27 00:00:00 NR 20.8000 -158.400 main 63 63 O_________O___ jtwc_cp CP011951 20.8000 -158.400 26 -1 20.8000 -158.400 2 2 213
1951080N23195 1951 20 EP CP NOT_NAMED 1951-03-27 03:00:00 NR 20.7662 -158.471 main 69 69 P_________P___ CP011951 20.7625 -158.450 26 -1 20.7700 -158.492 2 1 272
1951080N23195 1951 20 EP CP NOT_NAMED 1951-03-27 06:00:00 NR 20.8050 -158.530 main 69 68 O_________P___ jtwc_cp CP011951 20.8000 -158.500 26 -1 20.8099 -158.560 2 2 319
1951080N23195 1951 20 EP CP NOT_NAMED 1951-03-27 09:00:00 NR 20.8900 -158.581 main 68 61 P_________P___ CP011951 20.8850 -158.565 26 -1 20.8950 -158.598 2 2 342
1951080N23195 1951 20 EP CP NOT_NAMED 1951-03-27 12:00:00 NR 21.0000 -158.600 main 61 56 O_________O___ jtwc_cp CP011951 21.0000 -158.600 26 -1 21.0000 -158.600 2 2 0
1951080N23195 1951 20 EP CP NOT_NAMED 1951-03-27 15:00:00 NR 21.0887 -158.571 main 56 42 P_________P___ CP011951 21.1000 -158.573 26 -1 21.0775 -158.569 2 2 26
1951080N23195 1951 20 EP CP NOT_NAMED 1951-03-27 18:00:00 NR 21.1850 -158.501 main 42 30 O_________P___ jtwc_cp CP011951 21.2000 -158.500 26 -1 21.1700 -158.502 2 2 37
1951080N23195 1951 20 EP CP NOT_NAMED 1951-03-27 21:00:00 NR 21.2850 -158.412 main 30 15 P_________P___ CP011951 21.2925 -158.415 26 -1 21.2775 -158.410 2 3 41
1951080N23195 1951 20 EP CP NOT_NAMED 1951-03-28 00:00:00 NR 21.4000 -158.300 main 15 0 O_________O___ jtwc_cp CP011951 21.4000 -158.300 26 -1 21.4000 -158.300 2 4 45
1951080N23195 1951 20 EP CP NOT_NAMED 1951-03-28 03:00:00 NR 21.5492 -158.131 main 0 0 P_________P___ CP011951 21.5425 -158.150 26 -1 21.5559 -158.113 2 4 45
1951080N23195 1951 20 EP CP NOT_NAMED 1951-03-28 06:00:00 NR 21.7112 -157.962 main 11 11 O_________P___ jtwc_cp CP011951 21.7000 -158.000 26 -1 21.7223 -157.923 2 4 42
1951080N23195 1951 20 EP CP NOT_NAMED 1951-03-28 09:00:00 NR 21.8712 -157.815 main 35 35 P_________P___ CP011951 21.8649 -157.833 26 -1 21.8775 -157.797 2 3 27
1951080N23195 1951 20 EP CP NOT_NAMED 1951-03-28 12:00:00 NR 22.0000 -157.800 main 45 44 O_________O___ jtwc_cp CP011951 22.0000 -157.800 26 -1 22.0000 -157.800 2 3 315
1951080N23195 1951 20 EP CP NOT_NAMED 1951-03-28 15:00:00 NR 22.0629 -158.023 main 55 55 P_________P___ CP011951 22.0725 -158.025 26 -1 22.0533 -158.022 2 6 279
1951080N23195 1951 20 EP CP NOT_NAMED 1951-03-28 18:00:00 NR 22.0867 -158.386 main 63 51 O_________P___ jtwc_cp CP011951 22.1000 -158.400 26 -1 22.0733 -158.373 2 7 272
1951080N23195 1951 20 EP CP NOT_NAMED 1951-03-28 21:00:00 NR 22.0908 -158.794 main 51 10 P_________P___ CP011951 22.1001 -158.800 26 -1 22.0816 -158.787 2 8 271
1951080N23195 1951 20 EP CP NOT_NAMED 1951-03-29 00:00:00 NR 22.1000 -159.200 main 10 0 O_________O___ jtwc_cp CP011951 22.1000 -159.200 26 -1 22.1000 -159.200 2 7 274
1951080N23195 1951 20 EP CP NOT_NAMED 1951-03-29 03:00:00 NR 22.1394 -159.513 main 0 0 P_________P___ CP011951 22.1349 -159.515 26 -1 22.1440 -159.511 2 6 280
1951080N23195 1951 20 EP CP NOT_NAMED 1951-03-29 06:00:00 NR 22.2023 -159.804 main 15 15 O_________P___ jtwc_cp CP011951 22.2000 -159.800 26 -1 22.2045 -159.808 2 6 285
1951080N23195 1951 20 EP CP NOT_NAMED 1951-03-29 09:00:00 NR 22.2864 -160.101 main 45 45 P_________P___ CP011951 22.2849 -160.100 26 -1 22.2878 -160.101 2 6 290
1951080N23195 1951 20 EP CP NOT_NAMED 1951-03-29 12:00:00 NR 22.4000 -160.400 main 76 76 O_________O___ jtwc_cp CP011951 22.4000 -160.400 26 -1 22.4000 -160.400 2 6 295
1951080N23195 1951 20 EP CP NOT_NAMED 1951-03-29 15:00:00 NR 22.5398 -160.702 main 108 108 P_________P___ CP011951 22.5349 -160.693 26 -1 22.5448 -160.711 2 6 298
1951080N23195 1951 20 EP CP NOT_NAMED 1951-03-29 18:00:00 NR 22.7078 -161.017 main 146 146 O_________P___ jtwc_cp CP011951 22.7000 -161.000 26 -1 22.7157 -161.034 2 7 301
1951080N23195 1951 20 EP CP NOT_NAMED 1951-03-29 21:00:00 NR 22.8982 -161.352 main 192 192 P_________P___ CP011951 22.8927 -161.340 26 -1 22.9038 -161.365 2 7 302
1951080N23195 1951 20 EP CP NOT_NAMED 1951-03-30 00:00:00 NR 23.1000 -161.700 main 230 O_________O___ jtwc_cp CP011951 23.1000 -161.700 26 -1 23.1000 -161.700 2 8 302

IBTrACS Databaseについて

本データベースは、米国NOAAが公開する1842年以降の世界の熱帯低気圧のベストトラックデータアーカイブInternational Best Track Archive for Climate Stewardship (IBTrACS)を、ウェブで閲覧しやすい形式に変換したものです。

最終更新日:2021-10-21